createdAt,value
2016-12-10T00:00:42.783Z,1016.17
2016-12-10T00:01:53.534Z,1016.13
2016-12-10T00:03:04.258Z,1016.04
2016-12-10T00:04:15.028Z,1016.12
2016-12-10T00:05:26.070Z,1016.08
2016-12-10T00:06:36.833Z,1016.1
2016-12-10T00:07:47.566Z,1016.13
2016-12-10T00:08:58.309Z,1016.18
2016-12-10T00:10:09.058Z,1016.11
2016-12-10T00:11:19.803Z,1016.17
2016-12-10T00:12:30.547Z,1016.18
2016-12-10T00:13:41.268Z,1016.15
2016-12-10T00:14:52.016Z,1016.16
2016-12-10T00:16:02.729Z,1016.11
2016-12-10T00:17:13.464Z,1016.12
2016-12-10T00:18:24.203Z,1016.09
2016-12-10T00:19:34.950Z,1015.99
2016-12-10T00:20:45.701Z,1015.99
2016-12-10T00:21:56.717Z,1015.94
2016-12-10T00:23:07.441Z,1015.91
2016-12-10T00:24:18.190Z,1015.84
2016-12-10T00:25:28.923Z,1015.84
2016-12-10T00:26:39.657Z,1015.8
2016-12-10T00:27:50.702Z,1015.72
2016-12-10T00:29:01.425Z,1015.74
2016-12-10T00:30:12.163Z,1015.65
2016-12-10T00:31:22.912Z,1015.62
2016-12-10T00:32:33.609Z,1015.65
2016-12-10T00:33:44.334Z,1015.64
2016-12-10T00:34:55.070Z,1015.59
2016-12-10T00:36:05.803Z,1015.62
2016-12-10T00:37:16.519Z,1015.57
2016-12-10T00:38:27.232Z,1015.53
2016-12-10T00:39:37.935Z,1015.54
2016-12-10T00:40:48.674Z,1015.55
2016-12-10T00:41:59.403Z,1015.52
2016-12-10T00:43:10.150Z,1015.56
2016-12-10T00:44:20.847Z,1015.55
2016-12-10T00:45:31.568Z,1015.53
2016-12-10T00:46:42.310Z,1015.48
2016-12-10T00:47:53.052Z,1015.46
2016-12-10T00:49:03.781Z,1015.5
2016-12-10T00:50:14.520Z,1015.44
2016-12-10T00:51:25.249Z,1015.42
2016-12-10T00:52:35.995Z,1015.38
2016-12-10T00:53:47.049Z,1015.35
2016-12-10T00:54:57.794Z,1015.33
2016-12-10T00:56:08.538Z,1015.33
2016-12-10T00:57:19.280Z,1015.34
2016-12-10T00:58:30.002Z,1015.29
2016-12-10T00:59:40.748Z,1015.26
2016-12-10T01:00:51.473Z,1015.21
2016-12-10T01:02:02.195Z,1015.22
2016-12-10T01:03:12.937Z,1015.25
2016-12-10T01:04:23.716Z,1015.24
2016-12-10T01:05:34.454Z,1015.22
2016-12-10T01:06:45.206Z,1015.23
2016-12-10T01:07:55.955Z,1015.13
2016-12-10T01:09:06.694Z,1015.23
2016-12-10T01:10:17.440Z,1015.25
2016-12-10T01:11:28.140Z,1015.26
2016-12-10T01:12:38.862Z,1015.26
2016-12-10T01:13:49.610Z,1015.22
2016-12-10T01:15:00.356Z,1015.23
2016-12-10T01:16:11.098Z,1015.22
2016-12-10T01:17:21.824Z,1015.22
2016-12-10T01:18:32.563Z,1015.25
2016-12-10T01:19:43.291Z,1015.25
2016-12-10T01:20:54.053Z,1015.29
2016-12-10T01:22:04.809Z,1015.27
2016-12-10T01:23:15.554Z,1015.25
2016-12-10T01:24:26.302Z,1015.2
2016-12-10T01:25:37.016Z,1015.17
2016-12-10T01:26:47.739Z,1015.21
2016-12-10T01:27:58.476Z,1015.23
2016-12-10T01:29:09.210Z,1015.25
2016-12-10T01:30:19.926Z,1015.22
2016-12-10T01:31:30.676Z,1015.24
2016-12-10T01:32:41.443Z,1015.2
2016-12-10T01:33:52.197Z,1015.21
2016-12-10T01:35:02.936Z,1015.23
2016-12-10T01:36:13.974Z,1015.25
2016-12-10T01:37:24.707Z,1015.32
2016-12-10T01:38:35.445Z,1015.35
2016-12-10T01:39:46.170Z,1015.32
2016-12-10T01:40:56.912Z,1015.3
2016-12-10T01:42:07.647Z,1015.29
2016-12-10T01:43:18.394Z,1015.24
2016-12-10T01:44:29.130Z,1015.24
2016-12-10T01:45:39.867Z,1015.24
2016-12-10T01:46:50.593Z,1015.27
2016-12-10T01:48:01.343Z,1015.28
2016-12-10T01:49:12.066Z,1015.3
2016-12-10T01:50:22.840Z,1015.28
2016-12-10T01:51:33.606Z,1015.3
2016-12-10T01:52:44.330Z,1015.34
2016-12-10T01:53:55.056Z,1015.33
2016-12-10T01:55:05.775Z,1015.28
2016-12-10T01:56:16.521Z,1015.24
2016-12-10T01:57:27.236Z,1015.22
2016-12-10T01:58:37.987Z,1015.23
2016-12-10T01:59:48.729Z,1015.18
2016-12-10T02:00:59.425Z,1015.21
2016-12-10T02:02:10.146Z,1015.21
2016-12-10T02:03:20.889Z,1015.2
2016-12-10T02:04:31.616Z,1015.16
2016-12-10T02:05:42.367Z,1015.16
2016-12-10T02:06:53.122Z,1015.13
2016-12-10T02:08:03.827Z,1015.12
2016-12-10T02:09:14.575Z,1015.09
2016-12-10T02:10:25.299Z,1015.06
2016-12-10T02:11:36.040Z,1015.08
2016-12-10T02:12:46.768Z,1015.05
2016-12-10T02:13:57.785Z,1015.07
2016-12-10T02:15:08.575Z,1015.08
2016-12-10T02:16:19.304Z,1015
2016-12-10T02:17:30.045Z,1015
2016-12-10T02:18:40.771Z,1014.96
2016-12-10T02:19:51.518Z,1014.93
2016-12-10T02:21:02.236Z,1014.93
2016-12-10T02:22:12.930Z,1014.98
2016-12-10T02:23:23.703Z,1014.93
2016-12-10T02:24:34.425Z,1014.93
2016-12-10T02:25:45.147Z,1014.9
2016-12-10T02:26:55.889Z,1014.9
2016-12-10T02:28:06.628Z,1014.86
2016-12-10T02:29:17.381Z,1014.96
2016-12-10T02:30:28.107Z,1014.96
2016-12-10T02:31:38.829Z,1014.97
2016-12-10T02:32:49.569Z,1014.94
2016-12-10T02:34:00.291Z,1014.95
2016-12-10T02:35:11.012Z,1014.88
2016-12-10T02:36:21.791Z,1014.82
2016-12-10T02:37:32.533Z,1014.8
2016-12-10T02:38:43.292Z,1014.8
2016-12-10T02:39:54.021Z,1014.8
2016-12-10T02:41:04.771Z,1014.72
2016-12-10T02:42:15.489Z,1014.76
2016-12-10T02:43:26.538Z,1014.73
2016-12-10T02:44:37.255Z,1014.77
2016-12-10T02:45:47.988Z,1014.77
2016-12-10T02:46:58.729Z,1014.77
2016-12-10T02:48:09.474Z,1014.71
2016-12-10T02:49:20.218Z,1014.69
2016-12-10T02:50:30.936Z,1014.68
2016-12-10T02:51:41.636Z,1014.71
2016-12-10T02:52:52.357Z,1014.76
2016-12-10T02:54:03.078Z,1014.75
2016-12-10T02:55:13.822Z,1014.79
2016-12-10T02:56:24.547Z,1014.82
2016-12-10T02:57:35.294Z,1014.75
2016-12-10T02:58:46.032Z,1014.8
2016-12-10T02:59:56.758Z,1014.76
2016-12-10T03:01:07.499Z,1014.67
2016-12-10T03:02:18.242Z,1014.68
2016-12-10T03:03:28.995Z,1014.73
2016-12-10T03:04:39.715Z,1014.74
2016-12-10T03:05:50.507Z,1014.77
2016-12-10T03:07:01.258Z,1014.73
2016-12-10T03:08:12.029Z,1014.71
2016-12-10T03:09:22.745Z,1014.75
2016-12-10T03:10:33.499Z,1014.71
2016-12-10T03:11:44.259Z,1014.71
2016-12-10T03:12:55.037Z,1014.68
2016-12-10T03:14:05.811Z,1014.75
2016-12-10T03:15:16.554Z,1014.74
2016-12-10T03:16:27.277Z,1014.74
2016-12-10T03:17:38.003Z,1014.67
2016-12-10T03:18:48.734Z,1014.65
2016-12-10T03:19:59.484Z,1014.64
2016-12-10T03:21:10.206Z,1014.6
2016-12-10T03:22:20.980Z,1014.57
2016-12-10T03:23:31.726Z,1014.6
2016-12-10T03:24:42.450Z,1014.52
2016-12-10T03:25:53.536Z,1014.51
2016-12-10T03:27:04.286Z,1014.49
2016-12-10T03:28:15.031Z,1014.51
2016-12-10T03:29:25.777Z,1014.52
2016-12-10T03:30:36.553Z,1014.53
2016-12-10T03:31:47.274Z,1014.49
2016-12-10T03:32:58.044Z,1014.49
2016-12-10T03:34:08.787Z,1014.52
2016-12-10T03:35:19.557Z,1014.49
2016-12-10T03:36:30.253Z,1014.48
2016-12-10T03:37:40.978Z,1014.53
2016-12-10T03:38:51.748Z,1014.57
2016-12-10T03:40:02.498Z,1014.57
2016-12-10T03:41:13.243Z,1014.55
2016-12-10T03:42:23.982Z,1014.59
2016-12-10T03:43:34.709Z,1014.52
2016-12-10T03:44:45.446Z,1014.6
2016-12-10T03:45:56.178Z,1014.57
2016-12-10T03:47:06.926Z,1014.59
2016-12-10T03:48:17.642Z,1014.62
2016-12-10T03:49:28.361Z,1014.58
2016-12-10T03:50:39.108Z,1014.58
2016-12-10T03:51:49.871Z,1014.58
2016-12-10T03:53:00.637Z,1014.6
2016-12-10T03:54:11.365Z,1014.58
2016-12-10T03:55:22.115Z,1014.59
2016-12-10T03:56:32.861Z,1014.6
2016-12-10T03:57:43.624Z,1014.54
2016-12-10T03:58:54.696Z,1014.54
2016-12-10T04:00:05.425Z,1014.52
2016-12-10T04:01:16.195Z,1014.6
2016-12-10T04:02:26.940Z,1014.57
2016-12-10T04:03:37.709Z,1014.5
2016-12-10T04:04:48.453Z,1014.49
2016-12-10T04:05:59.199Z,1014.54
2016-12-10T04:07:09.951Z,1014.59
2016-12-10T04:08:20.690Z,1014.61
2016-12-10T04:09:31.417Z,1014.61
2016-12-10T04:10:42.150Z,1014.55
2016-12-10T04:11:52.903Z,1014.61
2016-12-10T04:13:03.628Z,1014.61
2016-12-10T04:14:14.351Z,1014.53
2016-12-10T04:15:25.066Z,1014.57
2016-12-10T04:16:35.783Z,1014.48
2016-12-10T04:17:46.550Z,1014.42
2016-12-10T04:18:57.256Z,1014.41
2016-12-10T04:20:07.994Z,1014.43
2016-12-10T04:21:18.742Z,1014.46
2016-12-10T04:22:29.491Z,1014.46
2016-12-10T04:23:40.241Z,1014.47
2016-12-10T04:24:50.982Z,1014.4
2016-12-10T04:26:02.022Z,1014.42
2016-12-10T04:27:13.053Z,1014.44
2016-12-10T04:28:23.746Z,1014.33
2016-12-10T04:29:34.491Z,1014.35
2016-12-10T04:30:45.231Z,1014.35
2016-12-10T04:31:55.983Z,1014.34
2016-12-10T04:33:06.731Z,1014.32
2016-12-10T04:34:17.475Z,1014.36
2016-12-10T04:35:28.201Z,1014.31
2016-12-10T04:36:38.968Z,1014.33
2016-12-10T04:37:49.718Z,1014.32
2016-12-10T04:39:00.460Z,1014.3
2016-12-10T04:40:11.210Z,1014.23
2016-12-10T04:41:21.984Z,1014.24
2016-12-10T04:42:32.729Z,1014.24
2016-12-10T04:43:43.497Z,1014.22
2016-12-10T04:44:54.239Z,1014.18
2016-12-10T04:46:04.992Z,1014.16
2016-12-10T04:47:15.736Z,1014.11
2016-12-10T04:48:26.481Z,1014.09
2016-12-10T04:49:37.228Z,1014.07
2016-12-10T04:50:47.971Z,1014.14
2016-12-10T04:51:59.062Z,1014.19
2016-12-10T04:53:09.811Z,1014.15
2016-12-10T04:54:20.562Z,1014.08
2016-12-10T04:55:31.320Z,1014.05
2016-12-10T04:56:42.049Z,1014.06
2016-12-10T04:57:52.774Z,1014.09
2016-12-10T04:59:03.512Z,1014.06
2016-12-10T05:00:14.240Z,1014.02
2016-12-10T05:01:25.008Z,1013.95
2016-12-10T05:02:35.775Z,1013.96
2016-12-10T05:03:46.483Z,1014.04
2016-12-10T05:04:57.200Z,1014.07
2016-12-10T05:06:07.949Z,1014.07
2016-12-10T05:07:19.017Z,1014.01
2016-12-10T05:08:29.763Z,1013.93
2016-12-10T05:09:40.530Z,1013.97
2016-12-10T05:10:51.261Z,1013.99
2016-12-10T05:12:02.003Z,1014.01
2016-12-10T05:13:13.027Z,1013.97
2016-12-10T05:14:23.770Z,1013.95
2016-12-10T05:15:34.540Z,1013.97
2016-12-10T05:16:45.260Z,1013.9
2016-12-10T05:17:55.980Z,1013.96
2016-12-10T05:19:06.715Z,1013.91
2016-12-10T05:20:17.474Z,1013.85
2016-12-10T05:21:28.236Z,1013.88
2016-12-10T05:22:38.977Z,1013.91
2016-12-10T05:23:49.731Z,1013.9
2016-12-10T05:25:00.483Z,1013.95
2016-12-10T05:26:11.224Z,1013.98
2016-12-10T05:27:21.969Z,1013.97
2016-12-10T05:28:32.683Z,1013.94
2016-12-10T05:29:43.413Z,1013.94
2016-12-10T05:30:54.138Z,1013.94
2016-12-10T05:32:04.879Z,1013.92
2016-12-10T05:33:15.624Z,1013.9
2016-12-10T05:34:26.345Z,1013.92
2016-12-10T05:35:37.096Z,1013.91
2016-12-10T05:36:47.842Z,1013.94
2016-12-10T05:37:58.558Z,1013.87
2016-12-10T05:39:09.281Z,1013.89
2016-12-10T05:40:20.000Z,1013.89
2016-12-10T05:41:30.726Z,1013.85
2016-12-10T05:42:41.471Z,1013.88
2016-12-10T05:43:52.517Z,1013.84
2016-12-10T05:45:03.251Z,1013.83
2016-12-10T05:46:13.980Z,1013.87
2016-12-10T05:47:24.697Z,1013.89
2016-12-10T05:48:35.452Z,1013.9
2016-12-10T05:49:46.172Z,1013.89
2016-12-10T05:50:56.919Z,1013.81
2016-12-10T05:52:07.665Z,1013.86
2016-12-10T05:53:18.407Z,1013.77
2016-12-10T05:54:29.108Z,1013.8
2016-12-10T05:55:39.852Z,1013.8
2016-12-10T05:56:50.571Z,1013.78
2016-12-10T05:58:01.307Z,1013.78
2016-12-10T05:59:12.041Z,1013.77
2016-12-10T06:00:22.807Z,1013.76
2016-12-10T06:01:33.531Z,1013.71
2016-12-10T06:02:44.554Z,1013.75
2016-12-10T06:03:55.316Z,1013.83
2016-12-10T06:05:06.066Z,1013.81
2016-12-10T06:06:16.817Z,1013.79
2016-12-10T06:07:27.558Z,1013.82
2016-12-10T06:08:38.283Z,1013.85
2016-12-10T06:09:49.029Z,1013.86
2016-12-10T06:10:59.775Z,1013.81
2016-12-10T06:12:10.508Z,1013.85
2016-12-10T06:13:21.245Z,1013.85
2016-12-10T06:14:31.981Z,1013.87
2016-12-10T06:15:42.707Z,1013.8
2016-12-10T06:16:53.454Z,1013.83
2016-12-10T06:18:04.494Z,1013.81
2016-12-10T06:19:15.244Z,1013.84
2016-12-10T06:20:25.991Z,1013.84
2016-12-10T06:21:36.741Z,1013.85
2016-12-10T06:22:47.483Z,1013.81
2016-12-10T06:23:58.205Z,1013.84
2016-12-10T06:25:08.966Z,1013.85
2016-12-10T06:26:19.708Z,1013.84
2016-12-10T06:27:30.436Z,1013.82
2016-12-10T06:28:41.183Z,1013.85
2016-12-10T06:29:51.954Z,1013.82
2016-12-10T06:31:02.681Z,1013.84
2016-12-10T06:32:13.426Z,1013.81
2016-12-10T06:33:24.170Z,1013.78
2016-12-10T06:34:34.887Z,1013.79
2016-12-10T06:35:45.638Z,1013.77
2016-12-10T06:36:56.379Z,1013.78
2016-12-10T06:38:07.105Z,1013.87
2016-12-10T06:39:17.843Z,1013.91
2016-12-10T06:40:28.614Z,1013.9
2016-12-10T06:41:39.337Z,1013.91
2016-12-10T06:42:50.080Z,1013.91
2016-12-10T06:44:00.826Z,1013.96
2016-12-10T06:45:11.582Z,1013.99
2016-12-10T06:46:22.325Z,1013.99
2016-12-10T06:47:33.071Z,1013.97
2016-12-10T06:48:43.860Z,1014.03
2016-12-10T06:49:54.641Z,1014.03
2016-12-10T06:51:05.385Z,1014.05
2016-12-10T06:52:16.130Z,1014.08
2016-12-10T06:53:26.872Z,1014.03
2016-12-10T06:54:37.597Z,1014.01
2016-12-10T06:55:48.323Z,1014.01
2016-12-10T06:56:59.065Z,1014.03
2016-12-10T06:58:09.811Z,1014.04
2016-12-10T06:59:20.560Z,1014.08
2016-12-10T07:00:31.316Z,1014.08
2016-12-10T07:01:42.019Z,1014.13
2016-12-10T07:02:53.091Z,1014.1
2016-12-10T07:04:03.820Z,1014.09
2016-12-10T07:05:14.562Z,1014.11
2016-12-10T07:06:25.303Z,1014.12
2016-12-10T07:07:36.016Z,1014.1
2016-12-10T07:08:46.746Z,1014.06
2016-12-10T07:09:57.443Z,1014.05
2016-12-10T07:11:08.145Z,1014.05
2016-12-10T07:12:18.858Z,1013.98
2016-12-10T07:13:29.609Z,1013.95
2016-12-10T07:14:40.346Z,1013.91
2016-12-10T07:15:51.105Z,1013.93
2016-12-10T07:17:01.847Z,1013.88
2016-12-10T07:18:12.568Z,1013.88
2016-12-10T07:19:23.326Z,1013.81
2016-12-10T07:20:34.033Z,1013.78
2016-12-10T07:21:44.776Z,1013.75
2016-12-10T07:22:55.522Z,1013.72
2016-12-10T07:24:06.249Z,1013.68
2016-12-10T07:25:16.995Z,1013.76
2016-12-10T07:26:27.733Z,1013.76
2016-12-10T07:27:38.485Z,1013.71
2016-12-10T07:28:49.228Z,1013.77
2016-12-10T07:29:59.973Z,1013.75
2016-12-10T07:31:10.719Z,1013.73
2016-12-10T07:32:21.415Z,1013.69
2016-12-10T07:33:32.165Z,1013.69
2016-12-10T07:34:42.911Z,1013.69
2016-12-10T07:35:53.675Z,1013.69
2016-12-10T07:37:04.426Z,1013.79
2016-12-10T07:38:15.167Z,1013.78
2016-12-10T07:39:25.941Z,1013.79
2016-12-10T07:40:36.709Z,1013.81
2016-12-10T07:41:47.437Z,1013.83
2016-12-10T07:42:58.179Z,1013.87
2016-12-10T07:44:08.905Z,1013.87
2016-12-10T07:45:19.646Z,1013.89
2016-12-10T07:46:30.368Z,1013.9
2016-12-10T07:47:41.088Z,1013.93
2016-12-10T07:48:51.837Z,1013.93
2016-12-10T07:50:02.534Z,1013.95
2016-12-10T07:51:13.281Z,1013.93
2016-12-10T07:52:24.028Z,1013.98
2016-12-10T07:53:34.783Z,1014
2016-12-10T07:54:45.517Z,1013.96
2016-12-10T07:55:56.263Z,1014.02
2016-12-10T07:57:07.027Z,1014.07
2016-12-10T07:58:17.776Z,1014.08
2016-12-10T07:59:28.529Z,1014.11
2016-12-10T08:00:39.301Z,1014.07
2016-12-10T08:01:50.038Z,1014.04
2016-12-10T08:03:00.791Z,1014
2016-12-10T08:04:11.805Z,1014.03
2016-12-10T08:05:22.544Z,1014.03
2016-12-10T08:06:33.303Z,1014.08
2016-12-10T08:07:44.043Z,1014.1
2016-12-10T08:08:54.739Z,1014.03
2016-12-10T08:10:05.494Z,1014.04
2016-12-10T08:11:16.232Z,1013.97
2016-12-10T08:12:27.002Z,1013.99
2016-12-10T08:13:37.727Z,1013.98
2016-12-10T08:14:48.448Z,1014.02
2016-12-10T08:15:59.190Z,1014.01
2016-12-10T08:17:09.935Z,1014.04
2016-12-10T08:18:20.689Z,1014.03
2016-12-10T08:19:31.409Z,1014.08
2016-12-10T08:20:42.152Z,1013.99
2016-12-10T08:21:52.895Z,1014.01
2016-12-10T08:23:03.670Z,1014.01
2016-12-10T08:24:14.712Z,1014.01
2016-12-10T08:25:25.439Z,1013.96
2016-12-10T08:26:36.200Z,1013.89
2016-12-10T08:27:46.955Z,1013.8
2016-12-10T08:28:57.675Z,1013.86
2016-12-10T08:30:08.398Z,1013.85
2016-12-10T08:31:19.184Z,1013.83
2016-12-10T08:32:29.916Z,1013.82
2016-12-10T08:33:40.680Z,1013.83
2016-12-10T08:34:51.433Z,1013.86
2016-12-10T08:36:02.167Z,1013.79
2016-12-10T08:37:12.929Z,1013.79
2016-12-10T08:38:23.644Z,1013.81
2016-12-10T08:39:34.384Z,1013.84
2016-12-10T08:40:45.131Z,1013.81
2016-12-10T08:41:55.878Z,1013.86
2016-12-10T08:43:06.620Z,1013.88
2016-12-10T08:44:17.376Z,1013.88
2016-12-10T08:45:28.093Z,1013.82
2016-12-10T08:46:38.811Z,1013.83
2016-12-10T08:47:49.585Z,1013.83
2016-12-10T08:49:00.335Z,1013.77
2016-12-10T08:50:11.106Z,1013.79
2016-12-10T08:51:21.848Z,1013.84
2016-12-10T08:52:32.595Z,1013.77
2016-12-10T08:53:43.340Z,1013.78
2016-12-10T08:54:54.060Z,1013.77
2016-12-10T08:56:04.781Z,1013.77
2016-12-10T08:57:15.516Z,1013.78
2016-12-10T08:58:26.247Z,1013.81
2016-12-10T08:59:37.009Z,1013.8
2016-12-10T09:00:47.715Z,1013.75
2016-12-10T09:01:58.475Z,1013.74
2016-12-10T09:03:09.205Z,1013.74
2016-12-10T09:04:19.931Z,1013.67
2016-12-10T09:05:30.670Z,1013.68
2016-12-10T09:06:41.720Z,1013.71
2016-12-10T09:07:52.467Z,1013.72
2016-12-10T09:09:03.230Z,1013.69
2016-12-10T09:10:13.956Z,1013.7
2016-12-10T09:11:24.718Z,1013.67
2016-12-10T09:12:35.426Z,1013.63
2016-12-10T09:13:46.160Z,1013.63
2016-12-10T09:14:56.942Z,1013.63
2016-12-10T09:16:07.701Z,1013.58
2016-12-10T09:17:18.454Z,1013.53
2016-12-10T09:18:29.185Z,1013.55
2016-12-10T09:19:39.951Z,1013.52
2016-12-10T09:20:50.996Z,1013.44
2016-12-10T09:22:01.738Z,1013.43
2016-12-10T09:23:12.452Z,1013.37
2016-12-10T09:24:23.177Z,1013.37
2016-12-10T09:25:33.876Z,1013.38
2016-12-10T09:26:44.601Z,1013.43
2016-12-10T09:27:55.339Z,1013.45
2016-12-10T09:29:06.095Z,1013.41
2016-12-10T09:30:16.851Z,1013.44
2016-12-10T09:31:27.588Z,1013.46
2016-12-10T09:32:38.343Z,1013.48
2016-12-10T09:33:49.077Z,1013.49
2016-12-10T09:34:59.819Z,1013.48
2016-12-10T09:36:10.568Z,1013.53
2016-12-10T09:37:21.295Z,1013.44
2016-12-10T09:38:32.035Z,1013.51
2016-12-10T09:39:42.779Z,1013.5
2016-12-10T09:40:53.503Z,1013.5
2016-12-10T09:42:04.244Z,1013.39
2016-12-10T09:43:14.989Z,1013.42
2016-12-10T09:44:25.732Z,1013.39
2016-12-10T09:45:36.461Z,1013.35
2016-12-10T09:46:47.227Z,1013.4
2016-12-10T09:47:57.992Z,1013.37
2016-12-10T09:49:08.723Z,1013.43
2016-12-10T09:50:19.469Z,1013.45
2016-12-10T09:51:30.208Z,1013.44
2016-12-10T09:52:40.932Z,1013.45
2016-12-10T09:53:51.681Z,1013.51
2016-12-10T09:55:02.408Z,1013.53
2016-12-10T09:56:13.145Z,1013.45
2016-12-10T09:57:23.927Z,1013.49
2016-12-10T09:58:34.692Z,1013.44
2016-12-10T09:59:45.443Z,1013.43
2016-12-10T10:00:56.484Z,1013.4
2016-12-10T10:02:07.259Z,1013.44
2016-12-10T10:03:18.004Z,1013.46
2016-12-10T10:04:28.748Z,1013.49
2016-12-10T10:05:39.489Z,1013.45
2016-12-10T10:06:50.220Z,1013.35
2016-12-10T10:08:00.957Z,1013.39
2016-12-10T10:09:11.710Z,1013.47
2016-12-10T10:10:22.471Z,1013.44
2016-12-10T10:11:33.170Z,1013.36
2016-12-10T10:12:43.919Z,1013.3
2016-12-10T10:13:54.645Z,1013.3
2016-12-10T10:15:05.393Z,1013.22
2016-12-10T10:16:16.134Z,1013.16
2016-12-10T10:17:26.882Z,1013.23
2016-12-10T10:18:37.649Z,1013.25
2016-12-10T10:19:48.397Z,1013.29
2016-12-10T10:20:59.147Z,1013.26
2016-12-10T10:22:09.928Z,1013.27
2016-12-10T10:23:20.638Z,1013.28
2016-12-10T10:24:31.402Z,1013.19
2016-12-10T10:25:42.174Z,1013.2
2016-12-10T10:26:52.924Z,1013.19
2016-12-10T10:28:03.658Z,1013.18
2016-12-10T10:29:14.386Z,1013.14
2016-12-10T10:30:25.136Z,1013.14
2016-12-10T10:31:35.891Z,1013.2
2016-12-10T10:32:46.627Z,1013.22
2016-12-10T10:33:57.366Z,1013.18
2016-12-10T10:35:08.150Z,1013.19
2016-12-10T10:36:18.909Z,1013.17
2016-12-10T10:37:29.634Z,1013.16
2016-12-10T10:38:40.360Z,1013.17
2016-12-10T10:39:51.100Z,1013.18
2016-12-10T10:41:01.843Z,1013.19
2016-12-10T10:42:12.568Z,1013.28
2016-12-10T10:43:23.317Z,1013.2
2016-12-10T10:44:34.060Z,1013.17
2016-12-10T10:45:44.802Z,1013.24
2016-12-10T10:46:55.511Z,1013.24
2016-12-10T10:48:06.248Z,1013.13
2016-12-10T10:49:16.998Z,1013.18
2016-12-10T10:50:27.715Z,1013.13
2016-12-10T10:51:38.441Z,1013.06
2016-12-10T10:52:49.208Z,1013.15
2016-12-10T10:53:59.957Z,1013.26
2016-12-10T10:55:10.722Z,1013.31
2016-12-10T10:56:21.454Z,1013.34
2016-12-10T10:57:32.195Z,1013.29
2016-12-10T10:58:42.968Z,1013.2
2016-12-10T10:59:53.713Z,1013.24
2016-12-10T11:01:04.779Z,1013.24
2016-12-10T11:02:15.521Z,1013.25
2016-12-10T11:03:26.246Z,1013.23
2016-12-10T11:04:36.992Z,1013.23
2016-12-10T11:05:47.696Z,1013.28
2016-12-10T11:06:58.413Z,1013.27
2016-12-10T11:08:09.135Z,1013.22
2016-12-10T11:09:19.885Z,1013.12
2016-12-10T11:10:30.626Z,1013.18
2016-12-10T11:11:41.373Z,1013.2
2016-12-10T11:12:52.113Z,1013.19
2016-12-10T11:14:03.141Z,1013.13
2016-12-10T11:15:13.881Z,1013.02
2016-12-10T11:16:24.636Z,1013.05
2016-12-10T11:17:35.372Z,1013.02
2016-12-10T11:18:46.076Z,1013.05
2016-12-10T11:19:56.814Z,1012.98
2016-12-10T11:21:07.538Z,1013.02
2016-12-10T11:22:18.287Z,1013.01
2016-12-10T11:23:29.036Z,1013.01
2016-12-10T11:24:39.803Z,1013.05
2016-12-10T11:25:50.549Z,1013.06
2016-12-10T11:27:01.270Z,1013.02
2016-12-10T11:28:12.012Z,1013.03
2016-12-10T11:29:22.762Z,1013.1
2016-12-10T11:30:33.479Z,1013.03
2016-12-10T11:31:44.201Z,1013.06
2016-12-10T11:32:54.980Z,1012.94
2016-12-10T11:34:05.725Z,1012.88
2016-12-10T11:35:16.438Z,1012.94
2016-12-10T11:36:27.190Z,1013.02
2016-12-10T11:37:37.932Z,1013.03
2016-12-10T11:38:48.655Z,1013.02
2016-12-10T11:39:59.380Z,1013.03
2016-12-10T11:41:10.116Z,1013.05
2016-12-10T11:42:20.872Z,1013.11
2016-12-10T11:43:31.628Z,1013.02
2016-12-10T11:44:42.361Z,1013.02
2016-12-10T11:45:53.420Z,1013.04
2016-12-10T11:47:04.149Z,1013.1
2016-12-10T11:48:14.870Z,1013.12
2016-12-10T11:49:25.613Z,1013.14
2016-12-10T11:50:36.379Z,1013.17
2016-12-10T11:51:47.113Z,1013.19
2016-12-10T11:52:57.830Z,1013.19
2016-12-10T11:54:08.555Z,1013.25
2016-12-10T11:55:19.276Z,1013.23
2016-12-10T11:56:30.023Z,1013.22
2016-12-10T11:57:40.744Z,1013.23
2016-12-10T11:58:51.489Z,1013.22
2016-12-10T12:00:02.238Z,1013.13
2016-12-10T12:01:12.982Z,1013.15
2016-12-10T12:02:23.778Z,1013.17
2016-12-10T12:03:34.519Z,1013.18
2016-12-10T12:04:45.245Z,1013.14
2016-12-10T12:05:55.991Z,1013.09
2016-12-10T12:07:06.712Z,1013.06
2016-12-10T12:08:17.460Z,1013.23
2016-12-10T12:09:28.203Z,1013.11
2016-12-10T12:10:38.953Z,1013.04
2016-12-10T12:11:49.702Z,1013.09
2016-12-10T12:13:00.461Z,1013.01
2016-12-10T12:14:11.214Z,1012.97
2016-12-10T12:15:21.956Z,1012.93
2016-12-10T12:16:32.681Z,1012.97
2016-12-10T12:17:43.403Z,1012.92
2016-12-10T12:18:54.129Z,1012.97
2016-12-10T12:20:04.891Z,1012.98
2016-12-10T12:21:15.638Z,1012.95
2016-12-10T12:22:26.362Z,1012.97
2016-12-10T12:23:37.101Z,1013.06
2016-12-10T12:24:47.872Z,1012.95
2016-12-10T12:25:58.626Z,1012.97
2016-12-10T12:27:09.346Z,1012.96
2016-12-10T12:28:20.097Z,1013.01
2016-12-10T12:29:30.844Z,1012.98
2016-12-10T12:30:41.586Z,1012.92
2016-12-10T12:31:52.607Z,1012.89
2016-12-10T12:33:03.399Z,1012.86
2016-12-10T12:34:14.136Z,1012.81
2016-12-10T12:35:24.870Z,1012.85
2016-12-10T12:36:35.584Z,1012.86
2016-12-10T12:37:46.286Z,1012.82
2016-12-10T12:38:57.053Z,1012.83
2016-12-10T12:40:07.830Z,1012.88
2016-12-10T12:41:18.550Z,1012.87
2016-12-10T12:42:29.296Z,1012.89
2016-12-10T12:43:40.088Z,1012.93
2016-12-10T12:44:50.838Z,1012.96
2016-12-10T12:46:01.581Z,1013.01
2016-12-10T12:47:12.329Z,1013.03
2016-12-10T12:48:23.073Z,1013.04
2016-12-10T12:49:33.786Z,1012.98
2016-12-10T12:50:44.492Z,1012.97
2016-12-10T12:51:55.536Z,1012.9
2016-12-10T12:53:06.249Z,1012.86
2016-12-10T12:54:16.988Z,1012.94
2016-12-10T12:55:27.753Z,1012.93
2016-12-10T12:56:38.475Z,1013.04
2016-12-10T12:57:49.216Z,1012.91
2016-12-10T12:58:59.941Z,1012.92
2016-12-10T13:00:10.701Z,1012.93
2016-12-10T13:01:21.438Z,1012.96
2016-12-10T13:02:32.200Z,1012.95
2016-12-10T13:03:42.915Z,1012.97
2016-12-10T13:04:53.646Z,1012.99
2016-12-10T13:06:04.414Z,1012.92
2016-12-10T13:07:15.164Z,1012.89
2016-12-10T13:08:25.935Z,1012.84
2016-12-10T13:09:36.680Z,1012.81
2016-12-10T13:10:47.407Z,1012.8
2016-12-10T13:11:58.144Z,1012.86
2016-12-10T13:13:08.877Z,1012.88
2016-12-10T13:14:19.633Z,1012.95
2016-12-10T13:15:30.362Z,1012.88
2016-12-10T13:16:41.105Z,1012.9
2016-12-10T13:17:51.826Z,1012.89
2016-12-10T13:19:02.575Z,1012.8
2016-12-10T13:20:13.309Z,1012.84
2016-12-10T13:21:24.053Z,1012.84
2016-12-10T13:22:34.788Z,1012.81
2016-12-10T13:23:45.512Z,1012.85
2016-12-10T13:24:56.257Z,1012.9
2016-12-10T13:26:07.001Z,1012.9
2016-12-10T13:27:17.743Z,1012.88
2016-12-10T13:28:28.488Z,1012.97
2016-12-10T13:29:39.233Z,1012.99
2016-12-10T13:30:49.987Z,1012.99
2016-12-10T13:32:00.727Z,1012.99
2016-12-10T13:33:11.477Z,1013.02
2016-12-10T13:34:22.243Z,1013.14
2016-12-10T13:35:32.991Z,1012.99
2016-12-10T13:36:43.741Z,1013.12
2016-12-10T13:37:54.487Z,1013.12
2016-12-10T13:39:05.208Z,1013.2
2016-12-10T13:40:15.953Z,1013.21
2016-12-10T13:41:26.700Z,1013.21
2016-12-10T13:42:37.441Z,1013.19
2016-12-10T13:43:48.167Z,1013.12
2016-12-10T13:44:58.912Z,1013.11
2016-12-10T13:46:09.635Z,1013.14
2016-12-10T13:47:20.382Z,1013.19
2016-12-10T13:48:31.126Z,1013.2
2016-12-10T13:49:41.847Z,1013.23
2016-12-10T13:50:52.595Z,1013.27
2016-12-10T13:52:03.340Z,1013.21
2016-12-10T13:53:14.112Z,1013.32
2016-12-10T13:54:24.831Z,1013.3
2016-12-10T13:55:35.609Z,1013.37
2016-12-10T13:56:46.397Z,1013.38
2016-12-10T13:57:57.115Z,1013.34
2016-12-10T13:59:07.839Z,1013.34
2016-12-10T14:00:18.612Z,1013.28
2016-12-10T14:01:29.329Z,1013.26
2016-12-10T14:02:40.078Z,1013.32
2016-12-10T14:03:50.804Z,1013.3
2016-12-10T14:05:01.523Z,1013.37
2016-12-10T14:06:12.262Z,1013.37
2016-12-10T14:07:23.008Z,1013.37
2016-12-10T14:08:33.759Z,1013.29
2016-12-10T14:09:44.500Z,1013.35
2016-12-10T14:10:55.253Z,1013.39
2016-12-10T14:12:05.996Z,1013.38
2016-12-10T14:13:16.718Z,1013.38
2016-12-10T14:14:27.459Z,1013.36
2016-12-10T14:15:38.203Z,1013.33
2016-12-10T14:16:48.930Z,1013.37
2016-12-10T14:17:59.676Z,1013.32
2016-12-10T14:19:10.424Z,1013.4